Time;durP1;ratioP1;P1;durP2;ratioP2;P2;SDS_P1;SDS_P2;PMS_P1;PMS_P2;Temp;Humidity;BMP_temperature;BMP_pressure;BME280_temperature;BME280_humidity;BME280_pressure;Samples;Min_cycle;Max_cycle;Signal;HPM_P1;HPM_P2
2022/02/09 00:09:33;;;;;;;10.68;8.32;;;;;;;6.96;83.65;99830.78;4853602;29;20447;-81
2022/02/09 00:17:46;;;;;;;8.68;7.10;;;;;;;7.04;82.99;99838.53;4861377;29;20036;-80
2022/02/09 00:30:57;;;;;;;10.32;7.47;;;;;;;7.11;83.10;99833.25;4873980;29;20538;-82
2022/02/09 01:44:23;;;;;;;9.32;6.65;;;;;;;7.05;83.21;99813.63;4864070;29;20337;-80
2022/02/09 01:57:15;;;;;;;7.75;6.15;;;;;;;7.11;82.59;99818.13;4862442;29;20406;-79
2022/02/09 01:59:43;;;;;;;7.38;6.05;;;;;;;7.13;83.00;99815.28;4859142;29;20030;-79
2022/02/09 02:02:09;;;;;;;9.05;6.00;;;;;;;7.14;83.03;99811.59;4864667;29;20034;-81
2022/02/09 02:04:34;;;;;;;6.38;5.63;;;;;;;7.14;83.19;99809.75;4863414;29;20029;-80
2022/02/09 02:07:04;;;;;;;6.85;5.90;;;;;;;6.91;82.63;99774.81;4847019;29;20060;-79
2022/02/09 02:09:34;;;;;;;7.80;5.88;;;;;;;7.15;83.35;99811.41;4859333;29;20025;-79
2022/02/09 02:12:09;;;;;;;8.73;6.03;;;;;;;7.06;83.32;99791.38;4866406;29;20052;-80
2022/02/09 02:14:46;;;;;;;9.27;5.57;;;;;;;7.17;83.37;99796.06;4863827;29;20041;-78
2022/02/09 02:19:45;;;;;;;7.53;6.43;;;;;;;7.14;82.26;99791.16;4865259;29;20033;-79
2022/02/09 02:38:42;;;;;;;10.02;6.13;;;;;;;7.14;83.35;99775.22;4862452;29;20068;-82
2022/02/09 03:18:15;;;;;;;8.23;6.18;;;;;;;7.03;82.75;99745.84;4863614;29;20098;-79
2022/02/09 03:20:51;;;;;;;9.73;6.70;;;;;;;7.10;83.13;99746.69;4862486;29;20036;-80
2022/02/09 03:42:16;;;;;;;7.95;6.30;;;;;;;7.00;82.45;99739.09;4861900;29;20044;-81
2022/02/09 03:47:26;;;;;;;10.70;6.68;;;;;;;7.08;83.15;99746.03;4860503;29;20063;-80
2022/02/09 03:50:22;;;;;;;8.70;6.43;;;;;;;7.08;83.12;99754.81;4858397;29;20038;-79
2022/02/09 03:55:38;;;;;;;10.23;7.38;;;;;;;7.07;82.59;99750.56;4862225;29;20053;-78
2022/02/09 03:58:03;;;;;;;11.95;7.05;;;;;;;7.07;82.56;99760.34;4861148;29;20376;-79
2022/02/09 04:00:34;;;;;;;8.10;6.63;;;;;;;7.05;82.58;99757.91;4863989;29;20037;-79
2022/02/09 04:03:00;;;;;;;7.45;5.82;;;;;;;6.99;82.63;99749.94;4861634;29;20124;-78
2022/02/09 04:05:26;;;;;;;8.82;7.05;;;;;;;7.08;82.94;99751.34;4842647;29;20033;-79
2022/02/09 04:07:52;;;;;;;12.18;7.22;;;;;;;7.07;82.61;99750.56;4859656;29;20037;-80
2022/02/09 04:10:22;;;;;;;8.98;6.57;;;;;;;6.96;82.56;99732.56;4861770;29;20029;-80
2022/02/09 04:13:04;;;;;;;9.65;6.60;;;;;;;7.09;82.37;99750.34;4862103;29;20053;-79
2022/02/09 04:15:54;;;;;;;7.68;6.47;;;;;;;7.08;82.32;99759.31;4865099;29;20038;-79
2022/02/09 04:18:40;;;;;;;7.43;6.00;;;;;;;6.92;81.75;99725.22;4862396;29;20124;-80
2022/02/09 04:40:03;;;;;;;8.65;6.32;;;;;;;7.07;83.03;99753.19;4858062;29;20566;-79
2022/02/09 04:56:27;;;;;;;6.40;5.78;;;;;;;7.08;82.37;99730.94;4853883;29;20464;-80
2022/02/09 04:59:17;;;;;;;7.78;5.95;;;;;;;6.96;82.44;99713.19;4853896;29;20129;-83
2022/02/09 05:28:03;;;;;;;6.60;5.65;;;;;;;7.01;83.05;99700.91;4857094;29;20273;-85
2022/02/09 05:30:28;;;;;;;8.75;6.72;;;;;;;6.93;82.75;99689.69;4853672;29;20057;-85
2022/02/09 05:32:54;;;;;;;8.77;6.75;;;;;;;6.95;83.04;99688.47;4840198;29;20501;-85
2022/02/09 05:35:21;;;;;;;7.85;5.90;;;;;;;7.01;82.67;99700.91;4843162;29;20033;-85
2022/02/09 05:37:51;;;;;;;8.82;6.15;;;;;;;7.03;83.12;99706.84;4859773;29;20052;-85
2022/02/09 05:40:17;;;;;;;8.73;6.03;;;;;;;6.98;82.68;99693.38;4861741;29;20426;-85
2022/02/09 05:42:43;;;;;;;8.93;6.28;;;;;;;7.04;82.53;99703.16;4874950;29;20104;-85
2022/02/09 05:45:10;;;;;;;8.00;5.50;;;;;;;6.95;82.12;99688.47;4860630;29;20136;-85
2022/02/09 05:53:25;;;;;;;7.57;5.85;;;;;;;7.00;82.45;99701.94;4827714;29;20042;-85
2022/02/09 05:56:09;;;;;;;7.43;6.05;;;;;;;6.98;82.52;99696.03;4823581;29;20045;-85
2022/02/09 05:58:44;;;;;;;7.47;6.10;;;;;;;6.97;82.38;99685.63;4860673;29;20113;-85
2022/02/09 06:01:10;;;;;;;8.02;6.28;;;;;;;6.96;82.26;99686.63;4861212;29;20037;-85
2022/02/09 06:03:35;;;;;;;7.80;6.13;;;;;;;7.00;82.88;99688.69;4860929;29;20158;-85
2022/02/09 06:06:03;;;;;;;7.43;6.28;;;;;;;6.94;82.79;99670.94;4844911;29;20120;-85
2022/02/09 06:08:29;;;;;;;6.68;5.60;;;;;;;6.96;82.12;99674.19;4838299;29;20044;-85
2022/02/09 06:11:44;;;;;;;9.82;5.88;;;;;;;6.99;82.93;99687.03;4830194;29;20113;-85
2022/02/09 06:21:39;;;;;;;7.00;5.95;;;;;;;6.97;82.50;99685.63;4860951;29;20064;-85
2022/02/09 06:24:05;;;;;;;7.50;6.35;;;;;;;6.98;82.41;99688.06;4858571;29;20542;-85
2022/02/09 06:26:30;;;;;;;10.60;7.00;;;;;;;7.03;82.85;99698.06;4857549;29;20030;-85
2022/02/09 06:28:55;;;;;;;6.75;5.13;;;;;;;6.93;82.86;99679.06;4844593;29;20065;-85
2022/02/09 06:31:21;;;;;;;7.28;6.43;;;;;;;7.02;82.29;99691.94;4829520;29;20064;-85
2022/02/09 06:33:46;;;;;;;6.78;5.53;;;;;;;6.92;82.47;99672.16;4860244;29;20401;-85
2022/02/09 06:36:14;;;;;;;7.45;5.80;;;;;;;6.94;82.50;99678.06;4861599;29;20045;-85
2022/02/09 06:38:40;;;;;;;6.70;6.00;;;;;;;6.98;82.78;99698.69;4859819;29;20034;-85
2022/02/09 06:41:07;;;;;;;8.38;6.18;;;;;;;6.97;82.77;99694.38;4858818;29;20128;-85
2022/02/09 06:43:33;;;;;;;7.65;5.82;;;;;;;7.03;82.20;99709.53;4839164;29;20036;-85
2022/02/09 06:45:58;;;;;;;10.18;6.05;;;;;;;7.03;82.55;99709.53;4843771;29;20124;-85
2022/02/09 06:48:24;;;;;;;8.88;6.05;;;;;;;7.00;82.45;99699.28;4844254;29;20581;-85
2022/02/09 06:50:54;;;;;;;6.68;5.65;;;;;;;7.04;82.77;99715.63;4844762;29;20041;-85
2022/02/09 06:55:55;;;;;;;8.65;6.38;;;;;;;6.99;82.41;99700.31;4859475;29;20486;-85
2022/02/09 06:58:42;;;;;;;8.00;6.40;;;;;;;6.92;82.57;99696.03;4858377;29;20041;-85
2022/02/09 07:01:07;;;;;;;7.10;5.70;;;;;;;7.03;82.89;99714.00;4859767;29;20042;-85
2022/02/09 07:03:33;;;;;;;8.45;7.30;;;;;;;7.03;82.79;99714.00;4860912;29;20041;-85
2022/02/09 07:05:59;;;;;;;7.13;5.18;;;;;;;7.03;82.52;99717.47;4856769;29;20026;-85
2022/02/09 07:08:24;;;;;;;7.43;6.22;;;;;;;6.99;82.57;99710.91;4843485;29;20247;-85
2022/02/09 07:10:50;;;;;;;5.97;5.30;;;;;;;6.98;82.58;99713.78;4843925;29;20065;-85
2022/02/09 07:13:15;;;;;;;8.60;6.30;;;;;;;7.01;82.76;99722.16;4842626;29;20045;-85
2022/02/09 07:15:44;;;;;;;6.50;5.57;;;;;;;7.00;82.80;99714.41;4858335;29;20093;-85
2022/02/09 07:18:13;;;;;;;7.22;6.07;;;;;;;7.04;83.42;99724.41;4854559;29;20089;-85
2022/02/09 07:20:53;;;;;;;8.27;6.25;;;;;;;7.00;82.79;99723.19;4841263;29;20469;-85
2022/02/09 07:23:24;;;;;;;8.75;6.15;;;;;;;6.99;82.38;99726.06;4873214;29;20025;-85
2022/02/09 07:26:04;;;;;;;6.68;5.85;;;;;;;6.85;82.87;99704.00;4844768;29;20409;-85
2022/02/09 07:28:30;;;;;;;8.77;6.88;;;;;;;7.02;82.56;99720.31;4859301;29;20030;-85
2022/02/09 07:30:56;;;;;;;7.53;5.72;;;;;;;6.96;83.21;99710.53;4857758;29;20048;-85
2022/02/09 07:33:21;;;;;;;8.40;7.18;;;;;;;7.04;82.93;99721.75;4842159;29;20037;-85
2022/02/09 07:35:46;;;;;;;9.13;6.63;;;;;;;6.96;82.86;99711.34;4857193;29;20042;-85
2022/02/09 07:38:11;;;;;;;9.30;6.05;;;;;;;6.89;83.04;99699.91;4842710;29;20082;-85
2022/02/09 07:40:42;;;;;;;7.63;6.30;;;;;;;7.01;83.42;99718.69;4858143;29;20064;-85
2022/02/09 07:43:13;;;;;;;8.00;6.15;;;;;;;6.99;82.72;99710.91;4842135;29;20044;-85
2022/02/09 07:50:49;;;;;;;7.57;6.53;;;;;;;7.02;83.06;99718.47;4857913;29;20041;-85
2022/02/09 07:53:23;;;;;;;9.23;6.78;;;;;;;6.93;83.15;99698.47;4868039;29;20112;-85
2022/02/09 07:55:49;;;;;;;9.10;7.20;;;;;;;7.04;82.96;99712.97;4857014;29;20029;-85
2022/02/09 07:58:14;;;;;;;8.82;6.25;;;;;;;6.89;83.29;99678.69;4872224;29;20041;-85
2022/02/09 08:00:40;;;;;;;9.35;6.90;;;;;;;7.04;83.06;99715.63;4858167;29;20410;-85
2022/02/09 08:03:05;;;;;;;9.35;7.15;;;;;;;7.02;82.82;99701.75;4857225;29;20089;-85
2022/02/09 08:05:32;;;;;;;7.63;6.32;;;;;;;6.84;82.67;99669.72;4872446;29;20033;-85
2022/02/09 08:07:58;;;;;;;7.95;6.13;;;;;;;7.02;83.41;99688.47;4871885;29;20036;-85
2022/02/09 08:10:29;;;;;;;7.85;6.43;;;;;;;6.89;83.10;99675.19;4843353;29;20033;-85
2022/02/09 08:23:21;;;;;;;10.98;7.05;;;;;;;7.01;83.79;99685.00;4855687;29;20029;-85
2022/02/09 08:24:11;;;;;;;10.07;6.65;;;;;;;7.01;83.07;99679.69;4848204;29;20673;-85
2022/02/09 08:26:53;;;;;;;9.35;7.38;;;;;;;7.02;83.22;99683.97;4842503;29;20414;-85
2022/02/09 08:29:24;;;;;;;10.00;6.68;;;;;;;6.96;83.33;99670.72;4839040;29;20037;-85
2022/02/09 08:32:39;;;;;;;8.82;6.93;;;;;;;7.03;83.42;99682.16;4870471;29;20490;-85
2022/02/09 08:34:39;;;;;;;7.97;6.10;;;;;;;7.02;83.32;99683.97;4855450;29;20767;-85
2022/02/09 08:37:06;;;;;;;9.27;7.20;;;;;;;7.06;83.74;99692.34;4851597;29;20041;-85
2022/02/09 08:39:32;;;;;;;8.80;6.85;;;;;;;7.06;83.42;99679.06;4855058;29;20401;-85
2022/02/09 08:41:58;;;;;;;7.57;6.45;;;;;;;6.98;83.05;99668.66;4853188;29;20062;-85
2022/02/09 08:44:25;;;;;;;8.05;6.53;;;;;;;7.09;83.17;99676.84;4838139;29;20037;-85
2022/02/09 08:46:50;;;;;;;8.30;6.80;;;;;;;6.95;83.38;99647.84;4853424;29;20496;-85
2022/02/09 08:49:16;;;;;;;7.97;6.50;;;;;;;7.00;83.30;99659.47;4842708;29;20038;-85
2022/02/09 08:51:41;;;;;;;12.55;7.13;;;;;;;7.02;82.97;99656.63;4842694;29;20153;-85
2022/02/09 08:54:07;;;;;;;8.68;6.95;;;;;;;7.03;83.56;99652.97;4842840;29;20406;-85
2022/02/09 08:56:33;;;;;;;8.32;5.95;;;;;;;7.11;83.06;99660.69;4839431;29;20128;-85
2022/02/09 08:58:59;;;;;;;9.88;6.78;;;;;;;7.04;83.19;99642.13;4848164;29;20087;-85
2022/02/09 09:01:39;;;;;;;9.70;6.90;;;;;;;7.04;83.11;99639.47;4857882;29;20040;-85
2022/02/09 09:04:26;;;;;;;8.70;6.57;;;;;;;7.09;83.30;99646.81;4843049;29;20389;-85
2022/02/09 09:06:55;;;;;;;10.30;6.50;;;;;;;7.10;83.62;99649.25;4855267;29;20033;-85
2022/02/09 09:09:27;;;;;;;12.73;7.22;;;;;;;7.17;82.94;99655.38;4839804;29;20033;-85
2022/02/09 09:17:30;;;;;;;10.82;7.20;;;;;;;7.10;83.19;99637.84;4858687;29;20048;-84
2022/02/09 10:04:11;;;;;;;8.57;6.90;;;;;;;7.30;82.22;99660.66;4856213;29;20537;-83
2022/02/09 10:14:13;;;;;;;9.48;7.13;;;;;;;7.29;82.39;99658.22;4851708;29;20040;-83
2022/02/09 10:33:04;;;;;;;12.15;8.30;;;;;;;7.51;81.41;99657.75;4855859;29;20061;-83
2022/02/09 10:35:35;;;;;;;14.07;7.90;;;;;;;7.56;82.18;99657.13;4860898;29;20105;-83
2022/02/09 10:38:29;;;;;;;8.95;6.13;;;;;;;7.52;82.00;99662.03;4860669;29;20136;-83
2022/02/09 10:41:14;;;;;;;11.30;7.35;;;;;;;7.51;81.21;99652.44;4861814;29;20034;-84
2022/02/09 10:43:41;;;;;;;13.68;7.22;;;;;;;7.60;80.83;99668.16;4859413;29;20034;-83
2022/02/09 10:46:19;;;;;;;10.23;7.70;;;;;;;7.49;81.79;99651.03;4859962;29;20052;-83
2022/02/09 10:48:55;;;;;;;11.23;7.78;;;;;;;7.58;81.72;99652.41;4846037;29;20044;-83
2022/02/09 10:51:42;;;;;;;;;;;;;;;7.57;81.43;99662.25;4861746;29;20105;-84
2022/02/09 10:54:18;;;;;;;12.90;8.27;;;;;;;7.54;81.38;99664.47;4876454;29;19920;-83
2022/02/09 10:56:47;;;;;;;11.55;8.32;;;;;;;7.53;81.48;99666.31;4860839;29;20277;-83
2022/02/09 10:59:15;;;;;;;12.10;8.07;;;;;;;7.52;81.69;99663.88;4859290;29;20037;-83
2022/02/09 11:01:41;;;;;;;12.68;7.97;;;;;;;7.57;81.52;99666.75;4846559;29;20041;-83
2022/02/09 11:04:09;;;;;;;12.25;8.75;;;;;;;7.60;81.83;99662.84;4860572;29;20093;-84
2022/02/09 11:06:37;;;;;;;12.75;7.78;;;;;;;7.58;81.45;99647.09;4844679;29;20034;-83
2022/02/09 11:09:04;;;;;;;9.32;7.30;;;;;;;7.65;81.41;99655.03;4829995;29;20045;-83
2022/02/09 11:11:30;;;;;;;10.15;7.88;;;;;;;7.68;80.87;99651.97;4861752;29;20085;-84
2022/02/09 11:13:55;;;;;;;9.93;7.90;;;;;;;7.64;81.22;99630.34;4862516;29;20104;-85
2022/02/09 11:16:22;;;;;;;10.45;7.05;;;;;;;7.68;80.75;99633.38;4861026;29;20133;-85
2022/02/09 11:18:49;;;;;;;12.88;8.38;;;;;;;7.70;80.73;99634.81;4859829;29;20037;-85
2022/02/09 11:21:15;;;;;;;9.40;6.68;;;;;;;7.75;80.79;99637.66;4860172;29;20442;-85
2022/02/09 11:23:51;;;;;;;9.40;6.90;;;;;;;7.75;80.51;99631.53;4859153;29;20064;-85
2022/02/09 11:32:03;;;;;;;9.55;6.72;;;;;;;7.79;81.40;99619.44;4859706;29;20048;-86
2022/02/09 11:34:28;;;;;;;12.27;6.93;;;;;;;7.73;80.94;99613.16;4859548;29;20116;-86
2022/02/09 11:37:01;;;;;;;14.77;7.57;;;;;;;7.83;80.92;99618.81;4842977;29;20124;-86
2022/02/09 11:39:48;;;;;;;10.65;6.65;;;;;;;7.91;81.45;99633.69;4842564;29;20029;-85
2022/02/09 11:45:40;;;;;;;12.43;6.80;;;;;;;7.96;80.77;99617.91;4845715;29;20903;-85
2022/02/09 11:48:52;;;;;;;9.07;6.72;;;;;;;8.03;80.66;99629.34;4858057;29;20140;-85
2022/02/09 11:57:10;;;;;;;7.75;6.28;;;;;;;8.06;80.32;99623.63;4853854;29;20188;-85
2022/02/09 12:00:04;;;;;;;7.90;5.57;;;;;;;8.02;80.91;99614.41;4856266;29;20034;-85
2022/02/09 12:14:02;;;;;;;5.75;4.95;;;;;;;8.13;80.07;99621.72;4857471;29;20038;-85
2022/02/09 12:19:01;;;;;;;5.78;4.53;;;;;;;8.14;80.35;99604.75;4854595;29;20043;-85
2022/02/09 12:21:50;;;;;;;7.90;4.90;;;;;;;8.19;80.05;99619.00;4839272;29;21392;-85
2022/02/09 12:24:29;;;;;;;6.00;4.60;;;;;;;8.19;79.46;99611.03;4853475;29;20025;-85
2022/02/09 12:27:07;;;;;;;6.82;5.13;;;;;;;8.21;80.24;99613.50;4854496;29;20026;-85
2022/02/09 12:29:41;;;;;;;5.38;4.65;;;;;;;8.17;79.49;99604.28;4854970;29;20045;-85
2022/02/09 12:32:15;;;;;;;4.70;4.20;;;;;;;8.23;79.25;99600.78;4852385;29;20073;-85
2022/02/09 12:34:44;;;;;;;4.85;4.30;;;;;;;8.24;79.44;99605.91;4855738;29;20029;-85
2022/02/09 12:37:15;;;;;;;5.18;4.68;;;;;;;8.20;79.74;99590.59;4848582;29;20033;-85
2022/02/09 12:39:55;;;;;;;4.47;4.05;;;;;;;8.25;79.38;99596.06;4865568;29;20034;-85
2022/02/09 12:42:26;;;;;;;3.70;3.33;;;;;;;8.26;79.18;99597.72;4851227;29;20155;-85
2022/02/09 12:45:10;;;;;;;5.13;3.58;;;;;;;8.19;79.98;99581.78;4849715;29;20439;-85
2022/02/09 12:47:40;;;;;;;4.95;4.30;;;;;;;8.26;79.71;99592.41;4872858;29;20037;-83
2022/02/09 12:50:30;;;;;;;7.07;5.43;;;;;;;8.23;79.35;99596.28;4843109;29;20427;-83
2022/02/09 12:52:56;;;;;;;6.60;5.05;;;;;;;8.25;78.56;99596.94;4858662;29;20033;-83
2022/02/09 12:55:27;;;;;;;6.18;4.90;;;;;;;8.19;79.15;99575.66;4842375;29;20037;-83
2022/02/09 12:58:01;;;;;;;5.63;4.65;;;;;;;8.29;79.08;99597.31;4842030;29;20044;-82
2022/02/09 13:00:33;;;;;;;4.78;4.07;;;;;;;8.23;78.95;99592.81;4856372;29;20420;-81
2022/02/09 13:03:03;;;;;;;5.45;3.90;;;;;;;8.25;79.02;99596.94;4859285;29;20057;-84
2022/02/09 13:05:30;;;;;;;5.32;4.22;;;;;;;8.24;79.17;99605.06;4855199;29;20061;-84
2022/02/09 13:08:03;;;;;;;4.68;3.58;;;;;;;8.24;78.99;99605.91;4853696;29;20465;-85
2022/02/09 13:10:30;;;;;;;5.60;3.30;;;;;;;8.24;78.75;99597.09;4855406;29;20038;-85
2022/02/09 13:13:02;;;;;;;5.47;3.47;;;;;;;8.20;78.62;99593.25;4851541;29;20136;-85
2022/02/09 13:15:32;;;;;;;4.97;3.13;;;;;;;8.22;78.80;99597.31;4840356;29;20025;-84
2022/02/09 13:26:22;;;;;;;3.88;3.33;;;;;;;8.23;78.69;99590.16;4854599;29;20165;-84
2022/02/09 14:02:49;;;;;;;4.05;3.17;;;;;;;8.16;78.78;99584.88;4857454;29;20075;-83
2022/02/09 14:10:54;;;;;;;4.00;3.67;;;;;;;8.12;78.88;99569.56;4858541;29;20040;-83
2022/02/09 14:13:33;;;;;;;5.70;4.35;;;;;;;8.10;78.87;99563.66;4847565;29;20105;-83
2022/02/09 14:16:27;;;;;;;4.20;3.50;;;;;;;8.15;79.16;99569.13;4833455;29;20382;-83
2022/02/09 14:33:14;;;;;;;5.55;4.07;;;;;;;8.11;78.48;99566.09;4859610;29;20056;-83
2022/02/09 14:53:57;;;;;;;4.47;3.97;;;;;;;8.16;78.81;99592.88;4854087;29;20527;-84
2022/02/09 14:56:32;;;;;;;4.95;3.92;;;;;;;8.16;78.19;99598.19;4843392;29;20026;-83
2022/02/09 14:59:02;;;;;;;4.15;3.63;;;;;;;8.17;78.27;99598.97;4835345;29;20494;-84
2022/02/09 15:01:38;;;;;;;5.10;4.55;;;;;;;8.16;78.73;99602.69;4853777;29;20510;-83
2022/02/09 15:04:20;;;;;;;5.18;3.97;;;;;;;8.11;78.23;99599.84;4839193;29;20044;-84
2022/02/09 15:09:52;;;;;;;4.45;3.95;;;;;;;8.06;78.43;99589.84;4841864;29;20076;-83
2022/02/09 15:15:01;;;;;;;5.05;4.35;;;;;;;8.16;78.75;99605.34;4858164;29;20494;-84
2022/02/09 15:20:23;;;;;;;5.18;4.35;;;;;;;8.12;78.98;99609.47;4873060;29;19953;-84
2022/02/09 15:22:52;;;;;;;5.93;4.43;;;;;;;8.09;78.93;99607.22;4858677;29;20021;-84
2022/02/09 15:25:20;;;;;;;5.68;4.88;;;;;;;8.14;78.99;99610.06;4874285;29;20049;-84
2022/02/09 15:27:53;;;;;;;5.30;4.65;;;;;;;8.13;78.58;99609.25;4850663;29;20029;-83
2022/02/09 15:30:19;;;;;;;7.70;5.43;;;;;;;8.11;79.07;99602.50;4856449;29;20080;-82
2022/02/09 15:32:50;;;;;;;7.47;5.88;;;;;;;8.14;78.74;99604.75;4871755;29;20120;-83
2022/02/09 15:43:22;;;;;;;5.95;5.38;;;;;;;8.09;79.47;99607.22;4852773;29;20098;-83
2022/02/09 15:59:44;;;;;;;8.00;5.78;;;;;;;8.05;79.47;99622.78;4856861;29;20049;-85
2022/02/09 16:08:49;;;;;;;8.02;6.50;;;;;;;8.03;79.66;99616.06;4860451;29;20040;-84
2022/02/09 16:11:03;;;;;;;8.53;7.27;;;;;;;8.01;79.41;99618.09;4866552;29;20044;-84
2022/02/09 16:24:28;;;;;;;11.65;6.88;;;;;;;7.95;80.23;99597.69;4858186;29;20511;-85
2022/02/09 16:46:14;;;;;;;6.95;6.13;;;;;;;7.91;79.51;99594.63;4839137;29;20101;-86
2022/02/09 16:48:47;;;;;;;7.57;5.60;;;;;;;7.79;79.35;99579.59;4854867;29;20035;-86
2022/02/09 16:51:17;;;;;;;5.75;5.22;;;;;;;7.87;80.02;99580.16;4838855;29;20045;-86
2022/02/09 16:56:37;;;;;;;5.85;5.10;;;;;;;7.76;80.24;99574.69;4856452;29;20034;-86
2022/02/09 17:15:34;;;;;;;7.47;4.95;;;;;;;7.76;79.86;99596.75;4841312;29;20069;-85
2022/02/09 17:20:44;;;;;;;6.05;4.60;;;;;;;7.76;79.93;99590.63;4842170;29;21458;-85
2022/02/09 17:23:09;;;;;;;7.93;5.50;;;;;;;7.76;80.04;99590.63;4857186;29;20124;-85
2022/02/09 17:25:37;;;;;;;5.20;4.55;;;;;;;7.81;79.66;99601.44;4825504;29;20052;-85
2022/02/09 17:28:03;;;;;;;5.45;4.45;;;;;;;7.62;79.71;99573.94;4860095;29;20479;-85
2022/02/09 17:36:13;;;;;;;6.30;5.13;;;;;;;7.80;80.53;99597.16;4862817;29;20040;-86
2022/02/09 17:38:48;;;;;;;6.93;6.10;;;;;;;7.81;79.90;99606.75;4861818;29;20033;-87
2022/02/09 17:58:15;;;;;;;8.52;6.18;;;;;;;7.77;80.02;99573.66;4869067;29;20101;-85
2022/02/09 18:00:40;;;;;;;8.43;6.60;;;;;;;7.74;80.06;99571.44;4867007;29;20033;-86
2022/02/09 18:03:06;;;;;;;8.77;6.07;;;;;;;7.74;79.93;99574.09;4827062;29;20040;-87
2022/02/09 18:05:48;;;;;;;7.85;5.80;;;;;;;7.76;80.26;99580.00;4831046;29;20073;-87
2022/02/09 18:11:26;;;;;;;7.20;6.45;;;;;;;7.74;79.97;99585.53;4859321;29;20505;-86
2022/02/09 18:29:40;;;;;;;9.75;7.00;;;;;;;7.69;80.36;99584.56;4861633;29;20051;-87
2022/02/09 18:45:30;;;;;;;8.60;7.57;;;;;;;7.67;80.39;99591.88;4857898;29;20036;-86
2022/02/09 19:04:01;;;;;;;7.15;6.10;;;;;;;7.68;80.17;99599.66;4862995;29;20037;-86
2022/02/09 19:07:30;;;;;;;10.05;7.97;;;;;;;7.64;79.98;99589.66;4873058;29;20052;-87
2022/02/09 19:14:52;;;;;;;7.45;6.53;;;;;;;7.64;80.28;99582.53;4859288;29;20040;-87
2022/02/09 19:17:30;;;;;;;8.30;6.88;;;;;;;7.63;80.05;99582.72;4857355;29;20482;-87
2022/02/09 19:30:49;;;;;;;12.32;7.53;;;;;;;7.63;79.36;99588.03;4851550;29;20037;-87
2022/02/09 19:33:42;;;;;;;7.50;6.72;;;;;;;7.57;80.09;99579.91;4858534;29;20029;-87
2022/02/09 19:47:05;;;;;;;9.35;7.63;;;;;;;7.61;80.21;99572.31;4854689;29;20040;-86
2022/02/09 19:49:52;;;;;;;7.97;6.72;;;;;;;7.61;80.17;99566.19;4837882;29;20033;-86
2022/02/09 19:57:23;;;;;;;7.78;6.82;;;;;;;7.58;80.29;99567.41;4857645;29;20034;-86
2022/02/09 19:59:50;;;;;;;7.03;5.90;;;;;;;7.61;80.27;99569.66;4860683;29;20406;-86
2022/02/09 20:02:16;;;;;;;7.45;5.50;;;;;;;7.58;80.02;99554.94;4841153;29;20462;-86
2022/02/09 20:04:42;;;;;;;6.68;5.35;;;;;;;7.61;79.85;99563.53;4873432;29;20025;-86
2022/02/09 20:07:08;;;;;;;7.65;5.75;;;;;;;7.60;79.28;99556.59;4871747;29;20144;-86
2022/02/09 20:09:34;;;;;;;9.60;6.63;;;;;;;7.61;79.76;99560.88;4852636;29;20045;-86
2022/02/09 20:12:00;;;;;;;7.38;5.63;;;;;;;7.63;79.22;99558.81;4858046;29;20036;-86
2022/02/09 20:14:26;;;;;;;8.07;5.47;;;;;;;7.62;79.79;99551.88;4855281;29;20038;-86
2022/02/09 20:16:52;;;;;;;8.20;5.47;;;;;;;7.60;79.64;99546.75;4843295;29;20029;-86
2022/02/09 20:19:18;;;;;;;6.47;5.82;;;;;;;7.64;79.99;99555.97;4851354;29;20032;-86
2022/02/09 20:21:43;;;;;;;9.93;5.50;;;;;;;7.62;80.16;99551.88;4842751;29;20060;-86
2022/02/09 20:24:13;;;;;;;6.97;6.28;;;;;;;7.58;79.97;99557.59;4857913;29;20037;-86
2022/02/09 20:26:38;;;;;;;6.90;6.10;;;;;;;7.62;79.68;99563.31;4843338;29;20033;-86
2022/02/09 20:29:16;;;;;;;6.65;5.88;;;;;;;7.57;79.87;99545.38;4836513;29;20789;-86
2022/02/09 20:31:50;;;;;;;6.40;5.45;;;;;;;7.63;80.58;99550.84;4872027;29;20486;-85
2022/02/09 20:36:47;;;;;;;7.75;4.97;;;;;;;7.52;79.52;99531.06;4857441;29;20064;-86
2022/02/09 20:39:17;;;;;;;6.53;5.85;;;;;;;7.65;79.72;99554.91;4857053;29;20060;-86
2022/02/09 20:41:44;;;;;;;6.72;5.57;;;;;;;7.62;79.54;99544.72;4858374;29;20081;-85
2022/02/09 20:44:34;;;;;;;7.13;5.57;;;;;;;7.57;80.42;99533.91;4845961;29;20029;-83
2022/02/09 20:47:00;;;;;;;8.40;6.43;;;;;;;7.62;79.93;99530.63;4870269;29;20511;-82
2022/02/09 20:49:25;;;;;;;6.50;5.90;;;;;;;7.49;79.83;99508.41;4857690;29;20068;-82
2022/02/09 20:51:52;;;;;;;8.00;5.95;;;;;;;7.44;79.83;99499.47;4857618;29;20379;-82
2022/02/09 20:54:17;;;;;;;8.32;6.10;;;;;;;7.57;79.73;99521.47;4838225;29;20029;-82
2022/02/09 20:56:43;;;;;;;5.78;5.18;;;;;;;7.61;79.76;99524.50;4853933;29;20037;-82
2022/02/09 20:59:11;;;;;;;7.32;5.68;;;;;;;7.56;79.22;99511.84;4853135;29;20035;-82
2022/02/09 21:01:50;;;;;;;6.75;5.75;;;;;;;7.56;79.93;99513.69;4839226;29;20075;-82
2022/02/09 21:04:18;;;;;;;5.72;5.18;;;;;;;7.57;79.64;99513.50;4849855;29;20101;-82
2022/02/09 21:28:49;;;;;;;5.47;4.32;;;;;;;7.36;79.02;99510.34;4832865;29;20040;-83
2022/02/09 21:53:59;;;;;;;8.43;5.75;;;;;;;6.96;79.19;99499.03;4855771;29;21433;-81
2022/02/09 21:56:42;;;;;;;8.57;6.00;;;;;;;7.02;79.19;99508.81;4867783;29;20034;-80
2022/02/09 22:07:07;;;;;;;6.95;5.18;;;;;;;6.97;79.21;99505.97;4850508;29;20793;-81
2022/02/09 22:20:38;;;;;;;7.68;5.18;;;;;;;6.80;79.09;99489.69;4860592;29;20176;-81
2022/02/09 22:28:01;;;;;;;6.18;5.03;;;;;;;6.75;79.27;99494.81;4859540;29;20489;-81
2022/02/09 22:31:04;;;;;;;9.05;5.30;;;;;;;6.72;79.45;99478.50;4844689;29;20137;-81
2022/02/09 22:34:12;;;;;;;10.70;6.05;;;;;;;6.67;79.47;99483.59;4859860;29;20105;-81
2022/02/09 22:55:06;;;;;;;7.60;5.40;;;;;;;6.79;79.92;99471.34;4855322;29;20084;-81
2022/02/09 22:58:15;;;;;;;10.63;5.60;;;;;;;6.81;79.27;99462.13;4852497;29;20473;-81
2022/02/09 23:03:21;;;;;;;7.47;5.65;;;;;;;6.79;79.93;99453.56;4855068;29;20033;-81
2022/02/09 23:06:01;;;;;;;6.32;5.18;;;;;;;6.81;79.49;99456.81;4834095;29;20080;-81
2022/02/09 23:13:59;;;;;;;6.30;5.38;;;;;;;6.79;79.49;99450.91;4854424;29;20109;-81
2022/02/09 23:16:43;;;;;;;8.27;5.45;;;;;;;6.85;79.67;99453.75;4867530;29;20454;-81
2022/02/09 23:57:24;;;;;;;9.55;5.68;;;;;;;6.92;80.14;99399.66;4858780;29;20440;-81
